LFRN/RNS METAR and TAF weather

Enter ICAO airport designator
Station Type Date Time Source
LFRN METAR 2021/09/16 21:00 UTC NOAA

LFRN 162100Z AUTO 02004KT 9999 2500 R10/1200U NSC 16/14 Q1019 NOSIG


Station Type Date Time Source
LFRN Decoded METAR 2021/09/16 21:00 UTC NOAA

Rennes, France (LFRN) 48-04N 001-44W 37M
Sep 16, 2021 - 05:00 PM EDT / 2021.09.16 2100 UTC
Wind: from the NNE (020 degrees) at 5 MPH (4 KT):0
Visibility: greater than 7 mile(s):0
Temperature: 60 F (16 C)
Dew Point: 57 F (14 C)
Relative Humidity: 87%
Pressure (altimeter): 30.09 in. Hg (1019 hPa)
ob: LFRN 162100Z AUTO 02004KT 9999 2500 R10/1200U NSC 16/14 Q1019 NOSIG
cycle: 21

Station Type Date Time Source
LFRN TAF 2021/09/16 18:21 UTC NOAA

TAF TAF LFRN 161700Z 1618/1718 36005KT 9999 SCT025
TEMPO 1700/1706 3000 BR PROB30
TEMPO 1702/1706 0500 FG VV///
BECMG 1709/1712 19010KT

Example: see airport list